Bangkok, Thaïlande

06:08 ICT le 03 Mars 2015 (GMT +0700)
Khu Khot | Change Station
CLOSE
Current Station
Stations météorologiques personnelles
Location: Pathum Thani, PATHUM THANI
Altitude: 15 ft
Stations météo à proximité

Alt. 15 ft 13.96 °N, 100.65 °E | Updated 16 seconds ago

Mostly Cloudy
Nuageux
78.3 ° F
Paraît 81 ° F
N
1.6
Vent Variable Vent de ESE
Gusts 1.6 mph

Aujourd'hui
Haut(e) -- | Bas -- ° F
--% Risque de précip.
Hier
Haut(e) -- | Bas -- ° F
Precip. -- pouce
6:33 AM 6:26 PM
Lune gibbeuse croissante, 93% visible
Pression 29.80 pouce
Visibilité 6.2 Miles terrestres
Nuages Peu 2000 ft
Nuageux 30000 ft
indice de chaleur 81 ° F
Point de rosée 76 ° F
Humidité 93%
Précipitations 0.15 pouce
Profondeur de la couche neigeuse Non disponible.
UV 0 sur 12
Pollen Non disponible.
Qualité de l'air Non disponible.
Flu Activity Non disponible.
METAR VTBD 022230Z 15005KT 9999 FEW020 BKN300 27/25 Q1009 NOSIG

More Conditions Fewer Conditions

Pression 29.80 pouce
Visibilité 6.2 Miles terrestres
Nuages Peu 2000 ft
Nuageux 30000 ft
indice de chaleur 81 ° F
Point de rosée 76 ° F
Humidité 93%
Précipitations 0.15 pouce
Profondeur de la couche neigeuse Non disponible.
UV 0 sur 12
Pollen Non disponible.
Qualité de l'air Non disponible.
Flu Activity Non disponible.
METAR VTBD 022230Z 15005KT 9999 FEW020 BKN300 27/25 Q1009 NOSIG

More Conditions Fewer Conditions

10-Day Weather Forecast

Almanac

Astronomie

Mar. 03, 2015 Lever Coucher
Temps réel
Crépuscule civil
Crépuscule nautique
Crépuscule astronomique
Lune
Durée de lumière visible
Longueur du jour
Tomorrow will be .
, % of the Moon is Illuminated

Extrêmes aujourd'hui

Country Highs Country Lows

Community

WunderPhotos

Upload Photos

1,801,992 Photos téléchargées !

WunderBlogs® & News

Nearby

Qualité de l'air

  Qualité de l'air Indice de la qualité de l'air Polluant
Not available.

Épaisseur de neige

Station Depth Altitude

Activité sismique

Ville Distance Mag. Time & Date
Minimum magnitude displayed is 2.5.

Températures des eaux côtières

Lieu Température

Stations météo à proximité